sensor_id;sensor_type;location;lat;lon;timestamp;temperature;humidity
84276;DHT22;74432;51.212;3.254;2024-02-15T00:02:15;13.00;92.30
84276;DHT22;74432;51.212;3.254;2024-02-15T00:04:41;13.00;92.50
84276;DHT22;74432;51.212;3.254;2024-02-15T00:07:08;13.00;92.40
84276;DHT22;74432;51.212;3.254;2024-02-15T00:09:34;13.10;92.50
84276;DHT22;74432;51.212;3.254;2024-02-15T00:11:59;13.10;92.30
84276;DHT22;74432;51.212;3.254;2024-02-15T00:14:26;13.20;92.20
84276;DHT22;74432;51.212;3.254;2024-02-15T00:16:53;13.20;92.00
84276;DHT22;74432;51.212;3.254;2024-02-15T00:19:19;13.20;92.30
84276;DHT22;74432;51.212;3.254;2024-02-15T00:21:44;13.20;92.10
84276;DHT22;74432;51.212;3.254;2024-02-15T00:24:10;13.10;92.30
84276;DHT22;74432;51.212;3.254;2024-02-15T00:26:36;13.30;92.10
84276;DHT22;74432;51.212;3.254;2024-02-15T00:29:02;13.30;91.90
84276;DHT22;74432;51.212;3.254;2024-02-15T00:31:27;13.40;91.80
84276;DHT22;74432;51.212;3.254;2024-02-15T00:33:53;13.40;91.70
84276;DHT22;74432;51.212;3.254;2024-02-15T00:36:19;13.40;91.70
84276;DHT22;74432;51.212;3.254;2024-02-15T00:38:45;13.40;91.80
84276;DHT22;74432;51.212;3.254;2024-02-15T00:41:10;13.40;91.90
84276;DHT22;74432;51.212;3.254;2024-02-15T00:43:36;13.40;91.80
84276;DHT22;74432;51.212;3.254;2024-02-15T00:46:03;13.50;91.50
84276;DHT22;74432;51.212;3.254;2024-02-15T00:48:28;13.40;91.60
84276;DHT22;74432;51.212;3.254;2024-02-15T00:50:55;13.40;91.70
84276;DHT22;74432;51.212;3.254;2024-02-15T00:53:24;13.50;91.60
84276;DHT22;74432;51.212;3.254;2024-02-15T00:55:51;13.50;91.60
84276;DHT22;74432;51.212;3.254;2024-02-15T00:58:16;13.60;91.60
84276;DHT22;74432;51.212;3.254;2024-02-15T01:00:42;13.50;91.60
84276;DHT22;74432;51.212;3.254;2024-02-15T01:03:08;13.50;91.40
84276;DHT22;74432;51.212;3.254;2024-02-15T01:05:33;13.50;91.80
84276;DHT22;74432;51.212;3.254;2024-02-15T01:08:00;13.50;92.00
84276;DHT22;74432;51.212;3.254;2024-02-15T01:10:29;13.60;91.70
84276;DHT22;74432;51.212;3.254;2024-02-15T01:12:54;13.50;92.00
84276;DHT22;74432;51.212;3.254;2024-02-15T01:15:20;13.40;92.30
84276;DHT22;74432;51.212;3.254;2024-02-15T01:17:46;13.50;92.50
84276;DHT22;74432;51.212;3.254;2024-02-15T01:20:15;13.50;92.60
84276;DHT22;74432;51.212;3.254;2024-02-15T01:22:41;13.60;92.50
84276;DHT22;74432;51.212;3.254;2024-02-15T01:25:06;13.60;92.30
84276;DHT22;74432;51.212;3.254;2024-02-15T01:27:33;13.60;92.30
84276;DHT22;74432;51.212;3.254;2024-02-15T01:29:59;13.50;92.40
84276;DHT22;74432;51.212;3.254;2024-02-15T01:32:25;13.40;92.80
84276;DHT22;74432;51.212;3.254;2024-02-15T01:34:53;13.50;92.60
84276;DHT22;74432;51.212;3.254;2024-02-15T01:37:20;13.30;93.00
84276;DHT22;74432;51.212;3.254;2024-02-15T01:39:46;13.40;93.30
84276;DHT22;74432;51.212;3.254;2024-02-15T01:42:12;13.40;93.10
84276;DHT22;74432;51.212;3.254;2024-02-15T01:44:40;13.40;93.00
84276;DHT22;74432;51.212;3.254;2024-02-15T01:47:06;13.40;93.30
84276;DHT22;74432;51.212;3.254;2024-02-15T01:49:34;13.40;93.10
84276;DHT22;74432;51.212;3.254;2024-02-15T01:52:01;13.50;93.00
84276;DHT22;74432;51.212;3.254;2024-02-15T01:54:30;13.50;92.70
84276;DHT22;74432;51.212;3.254;2024-02-15T01:56:57;13.40;92.90
84276;DHT22;74432;51.212;3.254;2024-02-15T01:59:23;13.40;93.10
84276;DHT22;74432;51.212;3.254;2024-02-15T02:01:50;13.40;92.80
84276;DHT22;74432;51.212;3.254;2024-02-15T02:04:16;13.30;93.20
84276;DHT22;74432;51.212;3.254;2024-02-15T02:06:42;13.30;93.40
84276;DHT22;74432;51.212;3.254;2024-02-15T02:09:11;13.30;93.40
84276;DHT22;74432;51.212;3.254;2024-02-15T02:11:46;13.30;93.40
84276;DHT22;74432;51.212;3.254;2024-02-15T02:14:13;13.30;93.20
84276;DHT22;74432;51.212;3.254;2024-02-15T02:16:39;13.30;93.30
84276;DHT22;74432;51.212;3.254;2024-02-15T02:19:05;13.40;93.30
84276;DHT22;74432;51.212;3.254;2024-02-15T02:21:35;13.30;93.30
84276;DHT22;74432;51.212;3.254;2024-02-15T02:24:03;13.20;93.60
84276;DHT22;74432;51.212;3.254;2024-02-15T02:26:33;13.20;93.80
84276;DHT22;74432;51.212;3.254;2024-02-15T02:29:00;13.20;93.80
84276;DHT22;74432;51.212;3.254;2024-02-15T02:31:36;13.30;93.70
84276;DHT22;74432;51.212;3.254;2024-02-15T02:34:04;13.30;93.30
84276;DHT22;74432;51.212;3.254;2024-02-15T02:36:32;13.30;93.60
84276;DHT22;74432;51.212;3.254;2024-02-15T02:38:57;13.40;93.30
84276;DHT22;74432;51.212;3.254;2024-02-15T02:41:29;13.30;93.50
84276;DHT22;74432;51.212;3.254;2024-02-15T02:43:57;13.20;93.60
84276;DHT22;74432;51.212;3.254;2024-02-15T02:46:23;13.20;93.60
84276;DHT22;74432;51.212;3.254;2024-02-15T02:48:49;13.40;93.50
84276;DHT22;74432;51.212;3.254;2024-02-15T02:51:15;13.50;93.20
84276;DHT22;74432;51.212;3.254;2024-02-15T02:53:41;13.50;92.90
84276;DHT22;74432;51.212;3.254;2024-02-15T02:56:10;13.40;92.90
84276;DHT22;74432;51.212;3.254;2024-02-15T02:58:35;13.30;93.20
84276;DHT22;74432;51.212;3.254;2024-02-15T03:01:01;13.20;93.30
84276;DHT22;74432;51.212;3.254;2024-02-15T03:03:27;13.30;93.50
84276;DHT22;74432;51.212;3.254;2024-02-15T03:05:53;13.30;93.40
84276;DHT22;74432;51.212;3.254;2024-02-15T03:08:19;13.30;93.50
84276;DHT22;74432;51.212;3.254;2024-02-15T03:10:46;13.40;93.50
84276;DHT22;74432;51.212;3.254;2024-02-15T03:13:12;13.50;93.20
84276;DHT22;74432;51.212;3.254;2024-02-15T03:15:38;13.40;93.10
84276;DHT22;74432;51.212;3.254;2024-02-15T03:18:04;13.20;93.60
84276;DHT22;74432;51.212;3.254;2024-02-15T03:20:33;13.20;93.60
84276;DHT22;74432;51.212;3.254;2024-02-15T03:23:00;13.30;93.50
84276;DHT22;74432;51.212;3.254;2024-02-15T03:25:27;13.30;93.60
84276;DHT22;74432;51.212;3.254;2024-02-15T03:27:58;13.30;93.50
84276;DHT22;74432;51.212;3.254;2024-02-15T03:30:26;13.40;93.50
84276;DHT22;74432;51.212;3.254;2024-02-15T03:32:53;13.40;93.10
84276;DHT22;74432;51.212;3.254;2024-02-15T03:35:24;13.40;93.40
84276;DHT22;74432;51.212;3.254;2024-02-15T03:37:50;13.30;93.60
84276;DHT22;74432;51.212;3.254;2024-02-15T03:40:20;13.40;93.60
84276;DHT22;74432;51.212;3.254;2024-02-15T03:42:46;13.40;93.50
84276;DHT22;74432;51.212;3.254;2024-02-15T03:45:12;13.30;93.60
84276;DHT22;74432;51.212;3.254;2024-02-15T03:47:39;13.30;93.40
84276;DHT22;74432;51.212;3.254;2024-02-15T03:50:06;13.30;93.50
84276;DHT22;74432;51.212;3.254;2024-02-15T03:52:33;13.20;93.70
84276;DHT22;74432;51.212;3.254;2024-02-15T03:54:59;13.20;93.60
84276;DHT22;74432;51.212;3.254;2024-02-15T03:57:28;13.20;93.60
84276;DHT22;74432;51.212;3.254;2024-02-15T03:59:55;13.20;93.70
84276;DHT22;74432;51.212;3.254;2024-02-15T04:02:23;13.30;93.80
84276;DHT22;74432;51.212;3.254;2024-02-15T04:04:55;13.20;93.70
84276;DHT22;74432;51.212;3.254;2024-02-15T04:07:22;13.20;93.90
84276;DHT22;74432;51.212;3.254;2024-02-15T04:09:48;13.20;93.60
84276;DHT22;74432;51.212;3.254;2024-02-15T04:12:14;13.20;93.90
84276;DHT22;74432;51.212;3.254;2024-02-15T04:14:46;13.20;93.80
84276;DHT22;74432;51.212;3.254;2024-02-15T04:17:13;13.10;93.90
84276;DHT22;74432;51.212;3.254;2024-02-15T04:19:39;13.10;93.90
84276;DHT22;74432;51.212;3.254;2024-02-15T04:22:05;13.10;93.70
84276;DHT22;74432;51.212;3.254;2024-02-15T04:24:33;13.10;93.90
84276;DHT22;74432;51.212;3.254;2024-02-15T04:27:00;13.10;93.90
84276;DHT22;74432;51.212;3.254;2024-02-15T04:29:28;13.00;93.70
84276;DHT22;74432;51.212;3.254;2024-02-15T04:31:54;13.10;93.90
84276;DHT22;74432;51.212;3.254;2024-02-15T04:34:20;13.10;93.70
84276;DHT22;74432;51.212;3.254;2024-02-15T04:36:47;13.20;93.60
84276;DHT22;74432;51.212;3.254;2024-02-15T04:39:17;13.20;93.60
84276;DHT22;74432;51.212;3.254;2024-02-15T04:41:53;13.30;93.20
84276;DHT22;74432;51.212;3.254;2024-02-15T04:44:19;13.20;93.30
84276;DHT22;74432;51.212;3.254;2024-02-15T04:46:52;13.30;93.30
84276;DHT22;74432;51.212;3.254;2024-02-15T04:49:19;13.30;93.20
84276;DHT22;74432;51.212;3.254;2024-02-15T04:51:45;13.30;93.20
84276;DHT22;74432;51.212;3.254;2024-02-15T04:54:11;13.30;93.10
84276;DHT22;74432;51.212;3.254;2024-02-15T04:56:40;13.40;92.90
84276;DHT22;74432;51.212;3.254;2024-02-15T04:59:09;13.30;92.90
84276;DHT22;74432;51.212;3.254;2024-02-15T05:01:42;13.30;93.00
84276;DHT22;74432;51.212;3.254;2024-02-15T05:04:12;13.30;93.00
84276;DHT22;74432;51.212;3.254;2024-02-15T05:06:39;13.30;93.20
84276;DHT22;74432;51.212;3.254;2024-02-15T05:09:05;13.40;93.10
84276;DHT22;74432;51.212;3.254;2024-02-15T05:11:37;13.30;92.80
84276;DHT22;74432;51.212;3.254;2024-02-15T05:14:03;13.40;92.80
84276;DHT22;74432;51.212;3.254;2024-02-15T05:16:35;13.40;92.80
84276;DHT22;74432;51.212;3.254;2024-02-15T05:19:08;13.40;92.70
84276;DHT22;74432;51.212;3.254;2024-02-15T05:21:36;13.30;92.90
84276;DHT22;74432;51.212;3.254;2024-02-15T05:24:05;13.30;93.20
84276;DHT22;74432;51.212;3.254;2024-02-15T05:26:31;13.40;92.90
84276;DHT22;74432;51.212;3.254;2024-02-15T05:28:57;13.40;92.60
84276;DHT22;74432;51.212;3.254;2024-02-15T05:31:23;13.50;92.70
84276;DHT22;74432;51.212;3.254;2024-02-15T05:33:51;13.50;92.60
84276;DHT22;74432;51.212;3.254;2024-02-15T05:36:19;13.40;92.80
84276;DHT22;74432;51.212;3.254;2024-02-15T05:38:52;13.50;92.50
84276;DHT22;74432;51.212;3.254;2024-02-15T05:41:19;13.40;92.50
84276;DHT22;74432;51.212;3.254;2024-02-15T05:43:52;13.50;92.40
84276;DHT22;74432;51.212;3.254;2024-02-15T05:46:19;13.50;92.30
84276;DHT22;74432;51.212;3.254;2024-02-15T05:48:47;13.40;92.60
84276;DHT22;74432;51.212;3.254;2024-02-15T05:51:13;13.40;92.60
84276;DHT22;74432;51.212;3.254;2024-02-15T05:53:38;13.40;92.70
84276;DHT22;74432;51.212;3.254;2024-02-15T05:56:06;13.30;92.80
84276;DHT22;74432;51.212;3.254;2024-02-15T05:58:34;13.40;92.60
84276;DHT22;74432;51.212;3.254;2024-02-15T06:01:02;13.50;92.60
84276;DHT22;74432;51.212;3.254;2024-02-15T06:03:34;13.40;92.40
84276;DHT22;74432;51.212;3.254;2024-02-15T06:06:03;13.50;92.60
84276;DHT22;74432;51.212;3.254;2024-02-15T06:08:33;13.50;92.30
84276;DHT22;74432;51.212;3.254;2024-02-15T06:10:59;13.30;92.70
84276;DHT22;74432;51.212;3.254;2024-02-15T06:13:26;13.40;92.60
84276;DHT22;74432;51.212;3.254;2024-02-15T06:15:52;13.40;92.50
84276;DHT22;74432;51.212;3.254;2024-02-15T06:18:26;13.40;92.60
84276;DHT22;74432;51.212;3.254;2024-02-15T06:20:58;13.40;92.60
84276;DHT22;74432;51.212;3.254;2024-02-15T06:23:25;13.40;92.70
84276;DHT22;74432;51.212;3.254;2024-02-15T06:25:53;13.40;92.90
84276;DHT22;74432;51.212;3.254;2024-02-15T06:28:20;13.30;92.80
84276;DHT22;74432;51.212;3.254;2024-02-15T06:31:09;13.30;93.00
84276;DHT22;74432;51.212;3.254;2024-02-15T06:33:54;13.50;92.80
84276;DHT22;74432;51.212;3.254;2024-02-15T06:36:59;13.50;92.60
84276;DHT22;74432;51.212;3.254;2024-02-15T06:39:43;13.50;92.50
84276;DHT22;74432;51.212;3.254;2024-02-15T06:42:16;13.50;92.50
84276;DHT22;74432;51.212;3.254;2024-02-15T06:44:44;13.40;92.70
84276;DHT22;74432;51.212;3.254;2024-02-15T06:47:11;13.40;92.90
84276;DHT22;74432;51.212;3.254;2024-02-15T06:49:38;13.40;92.80
84276;DHT22;74432;51.212;3.254;2024-02-15T06:52:10;13.20;93.10
84276;DHT22;74432;51.212;3.254;2024-02-15T06:54:42;13.20;93.50
84276;DHT22;74432;51.212;3.254;2024-02-15T06:57:08;13.20;93.40
84276;DHT22;74432;51.212;3.254;2024-02-15T06:59:33;13.10;93.50
84276;DHT22;74432;51.212;3.254;2024-02-15T07:02:03;13.00;93.70
84276;DHT22;74432;51.212;3.254;2024-02-15T07:04:34;13.00;94.00
84276;DHT22;74432;51.212;3.254;2024-02-15T07:07:06;13.00;93.90
84276;DHT22;74432;51.212;3.254;2024-02-15T07:09:32;12.90;94.00
84276;DHT22;74432;51.212;3.254;2024-02-15T07:12:00;12.90;94.30
84276;DHT22;74432;51.212;3.254;2024-02-15T07:14:25;12.90;94.30
84276;DHT22;74432;51.212;3.254;2024-02-15T07:16:53;12.90;94.20
84276;DHT22;74432;51.212;3.254;2024-02-15T07:19:22;13.00;94.30
84276;DHT22;74432;51.212;3.254;2024-02-15T07:21:47;12.90;94.30
84276;DHT22;74432;51.212;3.254;2024-02-15T07:24:13;13.00;94.20
84276;DHT22;74432;51.212;3.254;2024-02-15T07:26:39;13.00;94.10
84276;DHT22;74432;51.212;3.254;2024-02-15T07:29:05;13.00;94.30
84276;DHT22;74432;51.212;3.254;2024-02-15T07:31:32;13.00;94.00
84276;DHT22;74432;51.212;3.254;2024-02-15T07:34:01;13.10;93.90
84276;DHT22;74432;51.212;3.254;2024-02-15T07:36:30;13.00;93.90
84276;DHT22;74432;51.212;3.254;2024-02-15T07:38:56;13.00;94.20
84276;DHT22;74432;51.212;3.254;2024-02-15T07:41:26;13.00;94.30
84276;DHT22;74432;51.212;3.254;2024-02-15T07:43:53;13.00;94.10
84276;DHT22;74432;51.212;3.254;2024-02-15T07:46:21;13.00;94.10
84276;DHT22;74432;51.212;3.254;2024-02-15T07:48:47;13.10;94.00
84276;DHT22;74432;51.212;3.254;2024-02-15T07:51:17;13.10;93.90
84276;DHT22;74432;51.212;3.254;2024-02-15T07:53:46;13.10;94.10
84276;DHT22;74432;51.212;3.254;2024-02-15T07:56:13;13.00;94.00
84276;DHT22;74432;51.212;3.254;2024-02-15T07:58:43;13.10;94.10
84276;DHT22;74432;51.212;3.254;2024-02-15T08:01:15;13.10;94.20
84276;DHT22;74432;51.212;3.254;2024-02-15T08:03:42;13.10;93.90
84276;DHT22;74432;51.212;3.254;2024-02-15T08:06:15;13.20;93.60
84276;DHT22;74432;51.212;3.254;2024-02-15T08:08:45;13.10;93.90
84276;DHT22;74432;51.212;3.254;2024-02-15T08:11:14;13.10;94.00
84276;DHT22;74432;51.212;3.254;2024-02-15T08:14:03;13.10;93.90
84276;DHT22;74432;51.212;3.254;2024-02-15T08:16:30;13.10;94.10
84276;DHT22;74432;51.212;3.254;2024-02-15T08:18:58;13.20;94.00
84276;DHT22;74432;51.212;3.254;2024-02-15T08:21:29;13.20;93.80
84276;DHT22;74432;51.212;3.254;2024-02-15T08:23:58;13.20;94.10
84276;DHT22;74432;51.212;3.254;2024-02-15T08:26:24;13.30;93.90
84276;DHT22;74432;51.212;3.254;2024-02-15T08:28:50;13.30;93.60
84276;DHT22;74432;51.212;3.254;2024-02-15T08:31:16;13.40;93.50
84276;DHT22;74432;51.212;3.254;2024-02-15T08:33:42;13.40;93.60
84276;DHT22;74432;51.212;3.254;2024-02-15T08:36:10;13.40;93.50
84276;DHT22;74432;51.212;3.254;2024-02-15T08:38:36;13.40;93.50
84276;DHT22;74432;51.212;3.254;2024-02-15T08:41:03;13.20;93.80
84276;DHT22;74432;51.212;3.254;2024-02-15T08:43:30;13.20;93.80
84276;DHT22;74432;51.212;3.254;2024-02-15T08:45:58;13.20;93.90
84276;DHT22;74432;51.212;3.254;2024-02-15T08:48:24;13.30;93.90
84276;DHT22;74432;51.212;3.254;2024-02-15T08:50:51;13.30;93.70
84276;DHT22;74432;51.212;3.254;2024-02-15T08:53:17;13.30;93.90
84276;DHT22;74432;51.212;3.254;2024-02-15T08:55:45;13.40;93.60
84276;DHT22;74432;51.212;3.254;2024-02-15T08:58:11;13.60;93.40
84276;DHT22;74432;51.212;3.254;2024-02-15T09:00:37;13.80;92.90
84276;DHT22;74432;51.212;3.254;2024-02-15T09:03:06;13.80;92.10
84276;DHT22;74432;51.212;3.254;2024-02-15T09:05:32;13.70;92.60
84276;DHT22;74432;51.212;3.254;2024-02-15T09:07:58;13.70;92.90
84276;DHT22;74432;51.212;3.254;2024-02-15T09:10:24;13.60;93.00
84276;DHT22;74432;51.212;3.254;2024-02-15T09:12:49;13.70;93.00
84276;DHT22;74432;51.212;3.254;2024-02-15T09:15:16;13.80;92.80
84276;DHT22;74432;51.212;3.254;2024-02-15T09:17:43;14.00;92.40
84276;DHT22;74432;51.212;3.254;2024-02-15T09:20:11;14.20;92.00
84276;DHT22;74432;51.212;3.254;2024-02-15T09:22:52;14.10;91.90
84276;DHT22;74432;51.212;3.254;2024-02-15T09:25:21;14.00;91.80
84276;DHT22;74432;51.212;3.254;2024-02-15T09:27:50;14.00;92.30
84276;DHT22;74432;51.212;3.254;2024-02-15T09:30:17;14.00;92.70
84276;DHT22;74432;51.212;3.254;2024-02-15T09:32:44;14.10;92.00
84276;DHT22;74432;51.212;3.254;2024-02-15T09:35:11;14.10;91.70
84276;DHT22;74432;51.212;3.254;2024-02-15T09:37:45;14.20;91.50
84276;DHT22;74432;51.212;3.254;2024-02-15T09:40:12;14.40;91.20
84276;DHT22;74432;51.212;3.254;2024-02-15T09:42:39;14.30;91.50
84276;DHT22;74432;51.212;3.254;2024-02-15T09:45:09;14.40;91.30
84276;DHT22;74432;51.212;3.254;2024-02-15T09:47:37;14.60;91.00
84276;DHT22;74432;51.212;3.254;2024-02-15T09:52:35;14.80;90.30
84276;DHT22;74432;51.212;3.254;2024-02-15T09:55:03;14.90;90.20
84276;DHT22;74432;51.212;3.254;2024-02-15T09:57:30;15.00;90.20
84276;DHT22;74432;51.212;3.254;2024-02-15T10:00:00;15.10;89.60
84276;DHT22;74432;51.212;3.254;2024-02-15T10:02:27;15.20;89.00
84276;DHT22;74432;51.212;3.254;2024-02-15T10:04:54;15.40;88.80
84276;DHT22;74432;51.212;3.254;2024-02-15T10:07:24;15.50;87.60
84276;DHT22;74432;51.212;3.254;2024-02-15T10:09:49;15.30;87.60
84276;DHT22;74432;51.212;3.254;2024-02-15T10:12:15;15.30;87.90
84276;DHT22;74432;51.212;3.254;2024-02-15T10:14:48;15.30;87.60
84276;DHT22;74432;51.212;3.254;2024-02-15T10:17:19;15.40;88.00
84276;DHT22;74432;51.212;3.254;2024-02-15T10:20:06;15.40;88.20
84276;DHT22;74432;51.212;3.254;2024-02-15T10:22:32;15.40;87.10
84276;DHT22;74432;51.212;3.254;2024-02-15T10:25:14;15.60;87.10
84276;DHT22;74432;51.212;3.254;2024-02-15T10:27:41;15.80;87.00
84276;DHT22;74432;51.212;3.254;2024-02-15T10:30:27;15.90;85.90
84276;DHT22;74432;51.212;3.254;2024-02-15T10:32:55;16.00;86.10
84276;DHT22;74432;51.212;3.254;2024-02-15T10:35:22;15.90;85.80
84276;DHT22;74432;51.212;3.254;2024-02-15T10:37:49;15.90;85.90
84276;DHT22;74432;51.212;3.254;2024-02-15T10:40:19;15.80;85.80
84276;DHT22;74432;51.212;3.254;2024-02-15T10:42:48;15.90;85.80
84276;DHT22;74432;51.212;3.254;2024-02-15T10:45:17;16.20;85.50
84276;DHT22;74432;51.212;3.254;2024-02-15T10:47:46;16.10;84.80
84276;DHT22;74432;51.212;3.254;2024-02-15T10:50:15;16.10;83.70
84276;DHT22;74432;51.212;3.254;2024-02-15T10:52:54;16.00;85.00
84276;DHT22;74432;51.212;3.254;2024-02-15T10:55:42;15.90;83.50
84276;DHT22;74432;51.212;3.254;2024-02-15T10:58:13;16.00;84.10
84276;DHT22;74432;51.212;3.254;2024-02-15T11:00:46;16.10;82.80
84276;DHT22;74432;51.212;3.254;2024-02-15T11:03:19;16.20;82.50
84276;DHT22;74432;51.212;3.254;2024-02-15T11:05:46;16.20;82.70
84276;DHT22;74432;51.212;3.254;2024-02-15T11:08:13;16.30;80.90
84276;DHT22;74432;51.212;3.254;2024-02-15T11:10:39;16.30;81.80
84276;DHT22;74432;51.212;3.254;2024-02-15T11:13:10;16.10;82.00
84276;DHT22;74432;51.212;3.254;2024-02-15T11:18:03;16.20;82.70
84276;DHT22;74432;51.212;3.254;2024-02-15T11:23:00;16.30;81.80
84276;DHT22;74432;51.212;3.254;2024-02-15T11:25:39;16.20;80.60
84276;DHT22;74432;51.212;3.254;2024-02-15T11:30:57;16.40;80.80
84276;DHT22;74432;51.212;3.254;2024-02-15T11:33:29;16.20;79.50
84276;DHT22;74432;51.212;3.254;2024-02-15T11:36:11;16.40;79.00
84276;DHT22;74432;51.212;3.254;2024-02-15T11:38:38;16.40;79.20
84276;DHT22;74432;51.212;3.254;2024-02-15T11:41:09;16.20;79.80
84276;DHT22;74432;51.212;3.254;2024-02-15T11:46:20;16.30;79.80
84276;DHT22;74432;51.212;3.254;2024-02-15T11:48:47;16.40;78.10
84276;DHT22;74432;51.212;3.254;2024-02-15T11:51:30;16.50;79.30
84276;DHT22;74432;51.212;3.254;2024-02-15T11:54:03;16.80;79.20
84276;DHT22;74432;51.212;3.254;2024-02-15T11:56:56;16.80;78.60
84276;DHT22;74432;51.212;3.254;2024-02-15T11:59:39;16.80;77.30
84276;DHT22;74432;51.212;3.254;2024-02-15T12:02:08;16.80;76.80
84276;DHT22;74432;51.212;3.254;2024-02-15T12:04:53;16.90;76.80
84276;DHT22;74432;51.212;3.254;2024-02-15T12:07:37;16.90;77.20
84276;DHT22;74432;51.212;3.254;2024-02-15T12:10:21;17.00;76.20
84276;DHT22;74432;51.212;3.254;2024-02-15T12:13:05;17.20;76.10
84276;DHT22;74432;51.212;3.254;2024-02-15T12:16:01;17.30;74.60
84276;DHT22;74432;51.212;3.254;2024-02-15T12:18:46;17.40;74.40
84276;DHT22;74432;51.212;3.254;2024-02-15T12:21:24;17.30;75.10
84276;DHT22;74432;51.212;3.254;2024-02-15T12:23:52;17.40;74.80
84276;DHT22;74432;51.212;3.254;2024-02-15T12:26:21;17.30;75.40
84276;DHT22;74432;51.212;3.254;2024-02-15T12:28:53;17.50;75.00
84276;DHT22;74432;51.212;3.254;2024-02-15T12:31:24;17.70;74.80
84276;DHT22;74432;51.212;3.254;2024-02-15T12:34:03;17.70;74.70
84276;DHT22;74432;51.212;3.254;2024-02-15T12:36:35;17.70;74.10
84276;DHT22;74432;51.212;3.254;2024-02-15T12:39:04;17.70;73.90
84276;DHT22;74432;51.212;3.254;2024-02-15T12:41:39;17.70;73.90
84276;DHT22;74432;51.212;3.254;2024-02-15T12:44:08;17.90;74.60
84276;DHT22;74432;51.212;3.254;2024-02-15T12:46:36;17.90;74.00
84276;DHT22;74432;51.212;3.254;2024-02-15T12:51:51;17.90;73.90
84276;DHT22;74432;51.212;3.254;2024-02-15T12:54:20;18.00;72.50
84276;DHT22;74432;51.212;3.254;2024-02-15T12:56:47;17.90;71.90
84276;DHT22;74432;51.212;3.254;2024-02-15T12:59:18;17.90;73.20
84276;DHT22;74432;51.212;3.254;2024-02-15T13:01:49;18.00;71.60
84276;DHT22;74432;51.212;3.254;2024-02-15T13:04:24;18.10;71.20
84276;DHT22;74432;51.212;3.254;2024-02-15T13:06:54;18.30;71.20
84276;DHT22;74432;51.212;3.254;2024-02-15T13:09:20;18.30;71.50
84276;DHT22;74432;51.212;3.254;2024-02-15T13:11:48;18.30;70.90
84276;DHT22;74432;51.212;3.254;2024-02-15T13:14:18;18.30;70.80
84276;DHT22;74432;51.212;3.254;2024-02-15T13:16:45;18.10;70.60
84276;DHT22;74432;51.212;3.254;2024-02-15T13:19:12;18.00;70.00
84276;DHT22;74432;51.212;3.254;2024-02-15T13:21:37;18.10;70.60
84276;DHT22;74432;51.212;3.254;2024-02-15T13:24:03;17.80;70.80
84276;DHT22;74432;51.212;3.254;2024-02-15T13:26:32;17.90;71.50
84276;DHT22;74432;51.212;3.254;2024-02-15T13:28:59;17.90;70.00
84276;DHT22;74432;51.212;3.254;2024-02-15T13:31:25;17.90;70.30
84276;DHT22;74432;51.212;3.254;2024-02-15T13:33:52;18.00;70.40
84276;DHT22;74432;51.212;3.254;2024-02-15T13:36:21;17.90;70.60
84276;DHT22;74432;51.212;3.254;2024-02-15T13:38:49;18.00;70.60
84276;DHT22;74432;51.212;3.254;2024-02-15T13:41:16;17.90;70.50
84276;DHT22;74432;51.212;3.254;2024-02-15T13:43:42;17.80;68.90
84276;DHT22;74432;51.212;3.254;2024-02-15T13:46:09;17.70;69.40
84276;DHT22;74432;51.212;3.254;2024-02-15T13:48:35;17.70;70.30
84276;DHT22;74432;51.212;3.254;2024-02-15T13:51:01;17.70;69.60
84276;DHT22;74432;51.212;3.254;2024-02-15T13:53:27;17.70;69.30
84276;DHT22;74432;51.212;3.254;2024-02-15T13:55:53;17.90;70.20
84276;DHT22;74432;51.212;3.254;2024-02-15T13:58:19;17.90;68.60
84276;DHT22;74432;51.212;3.254;2024-02-15T14:00:45;17.80;69.50
84276;DHT22;74432;51.212;3.254;2024-02-15T14:03:11;17.90;69.30
84276;DHT22;74432;51.212;3.254;2024-02-15T14:05:37;18.00;69.00
84276;DHT22;74432;51.212;3.254;2024-02-15T14:08:05;17.90;69.40
84276;DHT22;74432;51.212;3.254;2024-02-15T14:10:33;18.00;69.70
84276;DHT22;74432;51.212;3.254;2024-02-15T14:13:04;18.20;69.90
84276;DHT22;74432;51.212;3.254;2024-02-15T14:15:37;18.40;68.00
84276;DHT22;74432;51.212;3.254;2024-02-15T14:18:10;18.40;66.50
84276;DHT22;74432;51.212;3.254;2024-02-15T14:20:39;18.40;68.40
84276;DHT22;74432;51.212;3.254;2024-02-15T14:23:05;18.40;68.10
84276;DHT22;74432;51.212;3.254;2024-02-15T14:25:32;18.50;68.10
84276;DHT22;74432;51.212;3.254;2024-02-15T14:27:58;18.40;67.20
84276;DHT22;74432;51.212;3.254;2024-02-15T14:30:24;18.10;68.00
84276;DHT22;74432;51.212;3.254;2024-02-15T14:33:08;18.00;68.20
84276;DHT22;74432;51.212;3.254;2024-02-15T14:35:37;18.00;68.10
84276;DHT22;74432;51.212;3.254;2024-02-15T14:38:07;17.90;67.70
84276;DHT22;74432;51.212;3.254;2024-02-15T14:40:41;17.80;69.20
84276;DHT22;74432;51.212;3.254;2024-02-15T14:43:08;17.80;69.00
84276;DHT22;74432;51.212;3.254;2024-02-15T14:45:38;17.80;67.70
84276;DHT22;74432;51.212;3.254;2024-02-15T14:48:07;17.70;68.90
84276;DHT22;74432;51.212;3.254;2024-02-15T14:50:38;17.70;68.60
84276;DHT22;74432;51.212;3.254;2024-02-15T14:53:04;17.70;68.50
84276;DHT22;74432;51.212;3.254;2024-02-15T14:55:30;17.70;68.40
84276;DHT22;74432;51.212;3.254;2024-02-15T14:57:57;17.50;68.50
84276;DHT22;74432;51.212;3.254;2024-02-15T15:00:23;17.40;69.10
84276;DHT22;74432;51.212;3.254;2024-02-15T15:02:50;17.30;69.10
84276;DHT22;74432;51.212;3.254;2024-02-15T15:05:16;17.30;68.70
84276;DHT22;74432;51.212;3.254;2024-02-15T15:08:01;17.30;68.70
84276;DHT22;74432;51.212;3.254;2024-02-15T15:10:46;17.40;69.30
84276;DHT22;74432;51.212;3.254;2024-02-15T15:13:34;17.40;69.40
84276;DHT22;74432;51.212;3.254;2024-02-15T15:16:01;17.30;69.60
84276;DHT22;74432;51.212;3.254;2024-02-15T15:18:28;17.50;68.70
84276;DHT22;74432;51.212;3.254;2024-02-15T15:20:55;17.60;68.90
84276;DHT22;74432;51.212;3.254;2024-02-15T15:23:21;17.60;69.50
84276;DHT22;74432;51.212;3.254;2024-02-15T15:25:47;17.60;68.90
84276;DHT22;74432;51.212;3.254;2024-02-15T15:28:13;17.80;69.30
84276;DHT22;74432;51.212;3.254;2024-02-15T15:30:45;17.70;67.80
84276;DHT22;74432;51.212;3.254;2024-02-15T15:33:17;17.60;69.10
84276;DHT22;74432;51.212;3.254;2024-02-15T15:35:44;17.50;68.40
84276;DHT22;74432;51.212;3.254;2024-02-15T15:38:10;17.40;68.00
84276;DHT22;74432;51.212;3.254;2024-02-15T15:40:36;17.20;69.20
84276;DHT22;74432;51.212;3.254;2024-02-15T15:43:02;17.20;69.00
84276;DHT22;74432;51.212;3.254;2024-02-15T15:45:34;17.10;69.60
84276;DHT22;74432;51.212;3.254;2024-02-15T15:48:01;17.00;70.20
84276;DHT22;74432;51.212;3.254;2024-02-15T15:50:27;17.00;70.10
84276;DHT22;74432;51.212;3.254;2024-02-15T15:52:54;17.00;68.90
84276;DHT22;74432;51.212;3.254;2024-02-15T15:55:22;16.90;68.50
84276;DHT22;74432;51.212;3.254;2024-02-15T15:57:48;16.90;69.00